aviador You're here:

MKJS Decoded Metar

MONTEGO BAY in JAMAICA
Report Time2018-02-20 01:00:00
UTC Time2018-02-20 02:01:28
Flight Rules vfr VFR
Wind130° at 06 kt
W.Decomp.*RWY 07: 2.4 kt HW 5.5 kt RCW
W.Rank130° ranks 10
Current wind is above 130° avg. (4.5)
Visibility9999 m
Phenomena:N/A
Clouds:Few 024 Hf
Expected CloudBase > 2,000 ft AGL from Temp-Dew spread
CeilingNone
Temp26°C (ISA +11)
Dew Point21°C (74% RH)
QNH1017 hPa
Density Alt1,467 ft
Elevation3 ft
Report Wrong Elevation
Raw Report
METAR MKJS 200100Z 13006KT 9999 FEW024 26/21 Q1017=

Extra information for MKJS:More info

Metar Taf Metar & Taf Last 4 Metars F.Rules Stats Wind Profile Meteogram Temp Stats Airport Information Weather charts Add Link Nearby VenuesMetar ALERT Operation Metar Decoded Social comments